LIRS/GRS METAR and TAF weather

Enter ICAO airport designator
Station Type Date Time Source
LIRS METAR 2020/09/21 07:55 UTC NOAA

LIRS 210755Z 06004KT 9999 FEW030 21/16 Q1015


Station Type Date Time Source
LIRS Decoded METAR 2020/09/21 07:55 UTC NOAA

Grosseto, Italy (LIRS) 42-45N 011-04E 7M
Sep 21, 2020 - 03:55 AM EDT / 2020.09.21 0755 UTC
Wind: from the ENE (060 degrees) at 5 MPH (4 KT):0
Visibility: greater than 7 mile(s):0
Sky conditions: mostly clear
Temperature: 69 F (21 C)
Dew Point: 60 F (16 C)
Relative Humidity: 73%
Pressure (altimeter): 29.97 in. Hg (1015 hPa)
ob: LIRS 210755Z 06004KT 9999 FEW030 21/16 Q1015
cycle: 8

Station Type Date Time Source
LIRS TAF 2018/06/29 09:24 UTC NOAA

TAF TAF LIRS 290800Z 2909/2921 VRB03KT 9999 FEW030
BECMG 2911/2913 24015KT

Example: see airport list